PHKO

Ellison Onizuka Kona International at Keahole Airport

Kailua/Kona, Hawaii, USA
PHKO 202326Z 2100/2124 23008KT P6SM FEW025 SCT050 BKN120 FM210500 11005KT P6SM FEW025 SCT050 OVC250 FM212000 23008KT P6SM FEW030 SCT050 BKN250
Issued Valid From Valid To
Apr-20 @ 23:26 UTC
(5 hours ago)
Apr-21 @ 00:00 UTC
(4 hours ago)
Apr-22 @ 00:00 UTC
(in 20 hours)
Apr-21 @ 00:00 to Apr-21 @ 05:00
PHKO 202326Z 2100/2124 23008KT P6SM FEW025 SCT050 BKN120
Wind Visibility Clouds
230° at 8 knots Greater than 6 miles
  • Few at 2,500' AGL
  • Scattered at 5,000' AGL
  • Broken at 12,000' AGL
From Apr-21 @ 05:00 to Apr-21 @ 20:00
FM210500 11005KT P6SM FEW025 SCT050 OVC250
Wind Visibility Clouds
110° at 5 knots Greater than 6 miles
  • Few at 2,500' AGL
  • Scattered at 5,000' AGL
  • Overcast at 25,000' AGL
From Apr-21 @ 20:00 to Apr-22 @ 00:00
FM212000 23008KT P6SM FEW030 SCT050 BKN250
Wind Visibility Clouds
230° at 8 knots Greater than 6 miles
  • Few at 3,000' AGL
  • Scattered at 5,000' AGL
  • Broken at 25,000' AGL
PHKO 202326Z 2100/2124 23008KT P6SM FEW025 SCT050 BKN120 FM210500 11005KT P6SM FEW025 SCT050 OVC250 FM212000 23008KT P6SM FEW030 SCT050 BKN250
Issued Apr-20 @ 23:26 UTC
(5 hours ago)
Valid From Apr-21 @ 00:00 UTC
(4 hours ago)
Valid To Apr-22 @ 00:00 UTC
(in 20 hours)
Apr-21 @ 00:00 - Apr-21 @ 05:00
Wind Visibility
230° at 8 knots Greater than 6 miles
Clouds
  • Few at 2,500' AGL
  • Scattered at 5,000' AGL
  • Broken at 12,000' AGL
From Apr-21 @ 05:00 - Apr-21 @ 20:00
Wind Visibility
110° at 5 knots Greater than 6 miles
Clouds
  • Few at 2,500' AGL
  • Scattered at 5,000' AGL
  • Overcast at 25,000' AGL
From Apr-21 @ 20:00 - Apr-22 @ 00:00
Wind Visibility
230° at 8 knots Greater than 6 miles
Clouds
  • Few at 3,000' AGL
  • Scattered at 5,000' AGL
  • Broken at 25,000' AGL